ESMS/MMX METAR and TAF weather

Enter ICAO airport designator
Station Type Date Time Source
ESMS METAR 2018/12/10 17:20 UTC NOAA

ESMS 101720Z 28013KT CAVOK 05/02 Q1001 R17/25//95


Station Type Date Time Source
ESMS Decoded METAR 2018/12/10 17:20 UTC NOAA

Malmo / Sturup, Sweden (ESMS) 55-33N 013-22E
Dec 10, 2018 - 12:20 PM EST / 2018.12.10 1720 UTC
Wind: from the W (280 degrees) at 15 MPH (13 KT):0
Visibility: greater than 7 mile(s):0
Temperature: 41 F (5 C)
Dew Point: 35 F (2 C)
Relative Humidity: 80%
Pressure (altimeter): 29.56 in. Hg (1001 hPa)
ob: ESMS 101720Z 28013KT CAVOK 05/02 Q1001 R17/25//95
cycle: 17

Station Type Date Time Source
ESMS TAF 2018/12/10 12:33 UTC NOAA

TAF ESMS 101103Z 1012/1112 30012KT 9999 BKN020
TEMPO 1012/1021 30015G25KT
TEMPO 1021/1106 4000 -SHRASN BKN012


Example: see airport list